sensor_id;sensor_type;location;lat;lon;timestamp;P1;durP1;ratioP1;P2;durP2;ratioP2
31308;SDS011;17936;52.446;10.840;2023-02-21T00:01:44;25.73;;;13.68;;
31308;SDS011;17936;52.446;10.840;2023-02-21T00:04:28;24.67;;;13.55;;
31308;SDS011;17936;52.446;10.840;2023-02-21T00:07:12;26.45;;;15.02;;
31308;SDS011;17936;52.446;10.840;2023-02-21T00:09:57;25.85;;;13.75;;
31308;SDS011;17936;52.446;10.840;2023-02-21T00:12:41;27.35;;;14.02;;
31308;SDS011;17936;52.446;10.840;2023-02-21T00:15:25;23.65;;;14.73;;
31308;SDS011;17936;52.446;10.840;2023-02-21T00:18:09;25.67;;;14.75;;
31308;SDS011;17936;52.446;10.840;2023-02-21T00:20:54;26.13;;;15.23;;
31308;SDS011;17936;52.446;10.840;2023-02-21T00:23:38;27.13;;;14.93;;
31308;SDS011;17936;52.446;10.840;2023-02-21T00:26:22;26.58;;;15.05;;
31308;SDS011;17936;52.446;10.840;2023-02-21T00:29:06;24.73;;;14.18;;
31308;SDS011;17936;52.446;10.840;2023-02-21T00:31:51;25.02;;;13.48;;
31308;SDS011;17936;52.446;10.840;2023-02-21T00:34:36;23.63;;;14.07;;
31308;SDS011;17936;52.446;10.840;2023-02-21T00:37:21;22.48;;;13.48;;
31308;SDS011;17936;52.446;10.840;2023-02-21T00:40:05;24.23;;;13.57;;
31308;SDS011;17936;52.446;10.840;2023-02-21T00:42:50;28.08;;;15.95;;
31308;SDS011;17936;52.446;10.840;2023-02-21T00:45:34;29.23;;;15.45;;
31308;SDS011;17936;52.446;10.840;2023-02-21T00:48:21;28.35;;;15.93;;
31308;SDS011;17936;52.446;10.840;2023-02-21T00:51:06;27.33;;;14.88;;
31308;SDS011;17936;52.446;10.840;2023-02-21T00:53:50;27.10;;;14.75;;
31308;SDS011;17936;52.446;10.840;2023-02-21T00:56:35;27.00;;;14.40;;
31308;SDS011;17936;52.446;10.840;2023-02-21T00:59:19;19.77;;;12.00;;
31308;SDS011;17936;52.446;10.840;2023-02-21T01:02:03;23.45;;;13.15;;
31308;SDS011;17936;52.446;10.840;2023-02-21T01:04:48;21.33;;;12.93;;
31308;SDS011;17936;52.446;10.840;2023-02-21T01:07:32;22.75;;;13.60;;
31308;SDS011;17936;52.446;10.840;2023-02-21T01:10:16;25.70;;;14.60;;
31308;SDS011;17936;52.446;10.840;2023-02-21T01:13:02;25.02;;;13.38;;
31308;SDS011;17936;52.446;10.840;2023-02-21T01:15:46;28.17;;;14.90;;
31308;SDS011;17936;52.446;10.840;2023-02-21T01:18:31;26.40;;;14.32;;
31308;SDS011;17936;52.446;10.840;2023-02-21T01:21:16;27.38;;;14.90;;
31308;SDS011;17936;52.446;10.840;2023-02-21T01:24:01;30.73;;;15.65;;
31308;SDS011;17936;52.446;10.840;2023-02-21T01:26:46;28.13;;;15.80;;
31308;SDS011;17936;52.446;10.840;2023-02-21T01:29:30;22.88;;;13.82;;
31308;SDS011;17936;52.446;10.840;2023-02-21T01:32:14;28.50;;;15.73;;
31308;SDS011;17936;52.446;10.840;2023-02-21T01:34:59;27.08;;;15.95;;
31308;SDS011;17936;52.446;10.840;2023-02-21T01:37:43;25.30;;;16.27;;
31308;SDS011;17936;52.446;10.840;2023-02-21T01:40:27;26.15;;;14.90;;
31308;SDS011;17936;52.446;10.840;2023-02-21T01:43:15;31.55;;;16.38;;
31308;SDS011;17936;52.446;10.840;2023-02-21T01:46:01;30.92;;;16.70;;
31308;SDS011;17936;52.446;10.840;2023-02-21T01:48:45;25.42;;;15.30;;
31308;SDS011;17936;52.446;10.840;2023-02-21T01:51:32;31.13;;;17.10;;
31308;SDS011;17936;52.446;10.840;2023-02-21T01:54:20;30.08;;;17.83;;
31308;SDS011;17936;52.446;10.840;2023-02-21T01:57:06;30.58;;;17.40;;
31308;SDS011;17936;52.446;10.840;2023-02-21T01:59:52;30.88;;;16.67;;
31308;SDS011;17936;52.446;10.840;2023-02-21T02:05:36;30.95;;;17.13;;
31308;SDS011;17936;52.446;10.840;2023-02-21T02:08:22;29.35;;;15.40;;
31308;SDS011;17936;52.446;10.840;2023-02-21T02:11:20;24.98;;;13.88;;
31308;SDS011;17936;52.446;10.840;2023-02-21T02:14:20;28.63;;;16.77;;
31308;SDS011;17936;52.446;10.840;2023-02-21T02:19:54;33.03;;;18.08;;
31308;SDS011;17936;52.446;10.840;2023-02-21T02:28:14;32.38;;;16.35;;
31308;SDS011;17936;52.446;10.840;2023-02-21T02:33:59;30.42;;;17.02;;
31308;SDS011;17936;52.446;10.840;2023-02-21T02:36:50;28.20;;;15.98;;
31308;SDS011;17936;52.446;10.840;2023-02-21T02:39:23;28.90;;;17.40;;
31308;SDS011;17936;52.446;10.840;2023-02-21T02:42:15;30.77;;;17.30;;
31308;SDS011;17936;52.446;10.840;2023-02-21T02:44:59;30.20;;;17.42;;
31308;SDS011;17936;52.446;10.840;2023-02-21T02:47:32;31.67;;;17.02;;
31308;SDS011;17936;52.446;10.840;2023-02-21T02:50:00;33.20;;;17.77;;
31308;SDS011;17936;52.446;10.840;2023-02-21T02:52:27;33.13;;;18.15;;
31308;SDS011;17936;52.446;10.840;2023-02-21T02:54:56;36.42;;;18.48;;
31308;SDS011;17936;52.446;10.840;2023-02-21T02:57:23;33.05;;;18.23;;
31308;SDS011;17936;52.446;10.840;2023-02-21T02:59:49;37.47;;;18.33;;
31308;SDS011;17936;52.446;10.840;2023-02-21T03:07:39;35.60;;;17.17;;
31308;SDS011;17936;52.446;10.840;2023-02-21T03:10:27;31.35;;;17.83;;
31308;SDS011;17936;52.446;10.840;2023-02-21T03:13:17;32.28;;;18.95;;
31308;SDS011;17936;52.446;10.840;2023-02-21T03:15:56;32.50;;;17.40;;
31308;SDS011;17936;52.446;10.840;2023-02-21T03:21:00;33.88;;;17.88;;
31308;SDS011;17936;52.446;10.840;2023-02-21T03:23:28;35.35;;;20.05;;
31308;SDS011;17936;52.446;10.840;2023-02-21T03:25:57;30.35;;;17.42;;
31308;SDS011;17936;52.446;10.840;2023-02-21T03:28:25;30.40;;;17.33;;
31308;SDS011;17936;52.446;10.840;2023-02-21T03:30:52;31.55;;;17.70;;
31308;SDS011;17936;52.446;10.840;2023-02-21T03:33:21;29.35;;;15.90;;
31308;SDS011;17936;52.446;10.840;2023-02-21T03:35:48;31.98;;;18.00;;
31308;SDS011;17936;52.446;10.840;2023-02-21T03:38:13;29.70;;;16.98;;
31308;SDS011;17936;52.446;10.840;2023-02-21T03:40:39;29.60;;;17.23;;
31308;SDS011;17936;52.446;10.840;2023-02-21T03:43:05;31.85;;;18.65;;
31308;SDS011;17936;52.446;10.840;2023-02-21T03:45:34;31.45;;;17.60;;
31308;SDS011;17936;52.446;10.840;2023-02-21T03:48:00;32.15;;;17.85;;
31308;SDS011;17936;52.446;10.840;2023-02-21T03:50:26;30.73;;;17.23;;
31308;SDS011;17936;52.446;10.840;2023-02-21T03:52:51;32.88;;;18.42;;
31308;SDS011;17936;52.446;10.840;2023-02-21T03:55:18;34.88;;;17.90;;
31308;SDS011;17936;52.446;10.840;2023-02-21T03:57:44;31.02;;;17.77;;
31308;SDS011;17936;52.446;10.840;2023-02-21T04:00:10;34.40;;;17.90;;
31308;SDS011;17936;52.446;10.840;2023-02-21T04:02:37;30.90;;;16.52;;
31308;SDS011;17936;52.446;10.840;2023-02-21T04:05:03;36.30;;;18.65;;
31308;SDS011;17936;52.446;10.840;2023-02-21T04:07:28;31.30;;;17.55;;
31308;SDS011;17936;52.446;10.840;2023-02-21T04:09:54;33.53;;;16.10;;
31308;SDS011;17936;52.446;10.840;2023-02-21T04:12:20;31.23;;;18.17;;
31308;SDS011;17936;52.446;10.840;2023-02-21T04:14:46;30.83;;;17.90;;
31308;SDS011;17936;52.446;10.840;2023-02-21T04:17:11;29.73;;;17.08;;
31308;SDS011;17936;52.446;10.840;2023-02-21T04:19:37;35.55;;;19.95;;
31308;SDS011;17936;52.446;10.840;2023-02-21T04:22:02;29.45;;;17.60;;
31308;SDS011;17936;52.446;10.840;2023-02-21T04:24:28;34.35;;;18.38;;
31308;SDS011;17936;52.446;10.840;2023-02-21T04:26:54;37.47;;;17.48;;
31308;SDS011;17936;52.446;10.840;2023-02-21T04:29:19;38.58;;;19.45;;
31308;SDS011;17936;52.446;10.840;2023-02-21T04:31:45;37.35;;;19.60;;
31308;SDS011;17936;52.446;10.840;2023-02-21T04:34:11;34.22;;;19.15;;
31308;SDS011;17936;52.446;10.840;2023-02-21T04:36:36;35.55;;;19.08;;
31308;SDS011;17936;52.446;10.840;2023-02-21T04:39:03;31.05;;;17.25;;
31308;SDS011;17936;52.446;10.840;2023-02-21T04:41:30;36.05;;;19.15;;
31308;SDS011;17936;52.446;10.840;2023-02-21T04:43:56;37.05;;;19.25;;
31308;SDS011;17936;52.446;10.840;2023-02-21T04:46:22;29.02;;;15.82;;
31308;SDS011;17936;52.446;10.840;2023-02-21T04:48:48;32.88;;;18.58;;
31308;SDS011;17936;52.446;10.840;2023-02-21T04:51:15;34.47;;;17.42;;
31308;SDS011;17936;52.446;10.840;2023-02-21T04:53:45;32.13;;;17.63;;
31308;SDS011;17936;52.446;10.840;2023-02-21T04:56:12;36.38;;;18.10;;
31308;SDS011;17936;52.446;10.840;2023-02-21T04:58:38;34.15;;;17.23;;
31308;SDS011;17936;52.446;10.840;2023-02-21T05:01:05;31.48;;;17.02;;
31308;SDS011;17936;52.446;10.840;2023-02-21T05:03:30;30.88;;;17.23;;
31308;SDS011;17936;52.446;10.840;2023-02-21T05:05:56;34.42;;;18.48;;
31308;SDS011;17936;52.446;10.840;2023-02-21T05:08:21;30.88;;;17.25;;
31308;SDS011;17936;52.446;10.840;2023-02-21T05:10:48;31.63;;;17.50;;
31308;SDS011;17936;52.446;10.840;2023-02-21T05:13:14;28.13;;;16.02;;
31308;SDS011;17936;52.446;10.840;2023-02-21T05:15:40;29.70;;;17.27;;
31308;SDS011;17936;52.446;10.840;2023-02-21T05:18:06;30.25;;;17.17;;
31308;SDS011;17936;52.446;10.840;2023-02-21T05:20:32;36.40;;;18.60;;
31308;SDS011;17936;52.446;10.840;2023-02-21T05:22:57;31.58;;;17.08;;
31308;SDS011;17936;52.446;10.840;2023-02-21T05:25:23;30.85;;;18.65;;
31308;SDS011;17936;52.446;10.840;2023-02-21T05:27:52;34.03;;;18.77;;
31308;SDS011;17936;52.446;10.840;2023-02-21T05:30:18;32.38;;;16.42;;
31308;SDS011;17936;52.446;10.840;2023-02-21T05:32:46;30.60;;;17.02;;
31308;SDS011;17936;52.446;10.840;2023-02-21T05:35:12;31.40;;;17.17;;
31308;SDS011;17936;52.446;10.840;2023-02-21T05:37:38;36.42;;;18.92;;
31308;SDS011;17936;52.446;10.840;2023-02-21T05:40:04;27.33;;;16.55;;
31308;SDS011;17936;52.446;10.840;2023-02-21T05:42:31;37.33;;;20.70;;
31308;SDS011;17936;52.446;10.840;2023-02-21T05:44:57;36.08;;;19.73;;
31308;SDS011;17936;52.446;10.840;2023-02-21T05:47:22;32.13;;;18.85;;
31308;SDS011;17936;52.446;10.840;2023-02-21T05:49:48;31.98;;;17.45;;
31308;SDS011;17936;52.446;10.840;2023-02-21T05:52:15;34.33;;;17.88;;
31308;SDS011;17936;52.446;10.840;2023-02-21T05:54:41;34.92;;;19.45;;
31308;SDS011;17936;52.446;10.840;2023-02-21T05:57:06;32.90;;;18.83;;
31308;SDS011;17936;52.446;10.840;2023-02-21T05:59:32;33.70;;;18.33;;
31308;SDS011;17936;52.446;10.840;2023-02-21T06:01:57;37.53;;;19.75;;
31308;SDS011;17936;52.446;10.840;2023-02-21T06:04:23;36.97;;;20.75;;
31308;SDS011;17936;52.446;10.840;2023-02-21T06:06:49;33.50;;;18.75;;
31308;SDS011;17936;52.446;10.840;2023-02-21T06:09:15;33.42;;;18.67;;
31308;SDS011;17936;52.446;10.840;2023-02-21T06:11:42;35.17;;;18.90;;
31308;SDS011;17936;52.446;10.840;2023-02-21T06:14:13;33.00;;;18.75;;
31308;SDS011;17936;52.446;10.840;2023-02-21T06:16:41;33.03;;;17.70;;
31308;SDS011;17936;52.446;10.840;2023-02-21T06:19:07;31.42;;;18.55;;
31308;SDS011;17936;52.446;10.840;2023-02-21T06:21:34;32.78;;;17.92;;
31308;SDS011;17936;52.446;10.840;2023-02-21T06:24:00;33.08;;;17.45;;
31308;SDS011;17936;52.446;10.840;2023-02-21T06:26:26;29.73;;;16.58;;
31308;SDS011;17936;52.446;10.840;2023-02-21T06:28:51;29.65;;;17.27;;
31308;SDS011;17936;52.446;10.840;2023-02-21T06:31:17;32.47;;;15.98;;
31308;SDS011;17936;52.446;10.840;2023-02-21T06:33:43;26.33;;;15.48;;
31308;SDS011;17936;52.446;10.840;2023-02-21T06:36:11;31.02;;;16.88;;
31308;SDS011;17936;52.446;10.840;2023-02-21T06:38:39;26.50;;;15.35;;
31308;SDS011;17936;52.446;10.840;2023-02-21T06:41:05;24.20;;;14.00;;
31308;SDS011;17936;52.446;10.840;2023-02-21T06:43:31;27.00;;;15.60;;
31308;SDS011;17936;52.446;10.840;2023-02-21T06:45:58;32.65;;;16.48;;
31308;SDS011;17936;52.446;10.840;2023-02-21T06:48:23;25.55;;;15.43;;
31308;SDS011;17936;52.446;10.840;2023-02-21T06:50:49;27.33;;;15.25;;
31308;SDS011;17936;52.446;10.840;2023-02-21T06:53:14;27.98;;;15.82;;
31308;SDS011;17936;52.446;10.840;2023-02-21T06:55:40;26.40;;;14.35;;
31308;SDS011;17936;52.446;10.840;2023-02-21T06:58:05;26.63;;;15.02;;
31308;SDS011;17936;52.446;10.840;2023-02-21T07:00:31;27.33;;;14.60;;
31308;SDS011;17936;52.446;10.840;2023-02-21T07:02:56;26.75;;;14.63;;
31308;SDS011;17936;52.446;10.840;2023-02-21T07:05:22;23.83;;;13.85;;
31308;SDS011;17936;52.446;10.840;2023-02-21T07:07:47;22.33;;;13.55;;
31308;SDS011;17936;52.446;10.840;2023-02-21T07:10:13;23.90;;;14.88;;
31308;SDS011;17936;52.446;10.840;2023-02-21T07:12:38;26.13;;;16.13;;
31308;SDS011;17936;52.446;10.840;2023-02-21T07:15:05;24.52;;;13.73;;
31308;SDS011;17936;52.446;10.840;2023-02-21T07:17:31;26.67;;;15.05;;
31308;SDS011;17936;52.446;10.840;2023-02-21T07:19:56;29.02;;;16.13;;
31308;SDS011;17936;52.446;10.840;2023-02-21T07:22:22;27.35;;;15.90;;
31308;SDS011;17936;52.446;10.840;2023-02-21T07:24:51;25.55;;;15.27;;
31308;SDS011;17936;52.446;10.840;2023-02-21T07:27:17;27.77;;;15.45;;
31308;SDS011;17936;52.446;10.840;2023-02-21T07:29:45;29.65;;;16.52;;
31308;SDS011;17936;52.446;10.840;2023-02-21T07:32:15;27.52;;;16.55;;
31308;SDS011;17936;52.446;10.840;2023-02-21T07:34:42;30.70;;;16.55;;
31308;SDS011;17936;52.446;10.840;2023-02-21T07:37:08;29.25;;;16.98;;
31308;SDS011;17936;52.446;10.840;2023-02-21T07:39:34;34.70;;;17.00;;
31308;SDS011;17936;52.446;10.840;2023-02-21T07:41:59;33.00;;;17.98;;
31308;SDS011;17936;52.446;10.840;2023-02-21T07:44:25;30.30;;;16.90;;
31308;SDS011;17936;52.446;10.840;2023-02-21T07:46:51;29.02;;;17.48;;
31308;SDS011;17936;52.446;10.840;2023-02-21T07:49:16;30.33;;;17.00;;
31308;SDS011;17936;52.446;10.840;2023-02-21T07:51:42;29.17;;;16.40;;
31308;SDS011;17936;52.446;10.840;2023-02-21T07:54:07;29.75;;;14.98;;
31308;SDS011;17936;52.446;10.840;2023-02-21T07:56:33;30.10;;;17.73;;
31308;SDS011;17936;52.446;10.840;2023-02-21T07:58:59;26.80;;;15.45;;
31308;SDS011;17936;52.446;10.840;2023-02-21T08:01:24;30.83;;;15.82;;
31308;SDS011;17936;52.446;10.840;2023-02-21T08:03:51;30.48;;;16.90;;
31308;SDS011;17936;52.446;10.840;2023-02-21T08:06:16;30.13;;;16.55;;
31308;SDS011;17936;52.446;10.840;2023-02-21T08:08:43;28.73;;;16.48;;
31308;SDS011;17936;52.446;10.840;2023-02-21T08:11:09;28.50;;;16.05;;
31308;SDS011;17936;52.446;10.840;2023-02-21T08:13:34;27.10;;;15.23;;
31308;SDS011;17936;52.446;10.840;2023-02-21T08:16:00;29.85;;;16.00;;
31308;SDS011;17936;52.446;10.840;2023-02-21T08:18:26;31.27;;;17.00;;
31308;SDS011;17936;52.446;10.840;2023-02-21T08:20:52;30.38;;;16.38;;
31308;SDS011;17936;52.446;10.840;2023-02-21T08:23:19;29.60;;;16.63;;
31308;SDS011;17936;52.446;10.840;2023-02-21T08:25:45;29.10;;;16.25;;
31308;SDS011;17936;52.446;10.840;2023-02-21T08:28:11;28.25;;;15.07;;
31308;SDS011;17936;52.446;10.840;2023-02-21T08:30:38;30.80;;;16.63;;
31308;SDS011;17936;52.446;10.840;2023-02-21T08:33:04;32.90;;;15.82;;
31308;SDS011;17936;52.446;10.840;2023-02-21T08:35:29;32.83;;;17.67;;
31308;SDS011;17936;52.446;10.840;2023-02-21T08:37:55;29.23;;;17.63;;
31308;SDS011;17936;52.446;10.840;2023-02-21T08:40:26;35.72;;;19.08;;
31308;SDS011;17936;52.446;10.840;2023-02-21T08:42:53;32.30;;;18.27;;
31308;SDS011;17936;52.446;10.840;2023-02-21T08:45:19;33.00;;;18.40;;
31308;SDS011;17936;52.446;10.840;2023-02-21T08:47:46;33.72;;;18.73;;
31308;SDS011;17936;52.446;10.840;2023-02-21T08:50:12;37.03;;;19.02;;
31308;SDS011;17936;52.446;10.840;2023-02-21T08:52:37;37.38;;;19.23;;
31308;SDS011;17936;52.446;10.840;2023-02-21T08:55:03;34.72;;;19.80;;
31308;SDS011;17936;52.446;10.840;2023-02-21T08:57:30;38.33;;;17.92;;
31308;SDS011;17936;52.446;10.840;2023-02-21T08:59:55;41.53;;;21.67;;
31308;SDS011;17936;52.446;10.840;2023-02-21T09:02:22;37.92;;;19.23;;
31308;SDS011;17936;52.446;10.840;2023-02-21T09:04:49;38.60;;;19.73;;
31308;SDS011;17936;52.446;10.840;2023-02-21T09:07:16;41.70;;;20.60;;
31308;SDS011;17936;52.446;10.840;2023-02-21T09:09:43;41.17;;;22.33;;
31308;SDS011;17936;52.446;10.840;2023-02-21T09:12:08;42.78;;;21.15;;
31308;SDS011;17936;52.446;10.840;2023-02-21T09:14:35;42.65;;;21.73;;
31308;SDS011;17936;52.446;10.840;2023-02-21T09:17:01;45.35;;;20.30;;
31308;SDS011;17936;52.446;10.840;2023-02-21T09:19:28;45.53;;;20.27;;
31308;SDS011;17936;52.446;10.840;2023-02-21T09:21:54;40.55;;;21.25;;
31308;SDS011;17936;52.446;10.840;2023-02-21T09:24:20;40.47;;;20.42;;
31308;SDS011;17936;52.446;10.840;2023-02-21T09:26:49;39.67;;;20.02;;
31308;SDS011;17936;52.446;10.840;2023-02-21T09:29:18;36.58;;;20.15;;
31308;SDS011;17936;52.446;10.840;2023-02-21T09:31:45;40.13;;;19.95;;
31308;SDS011;17936;52.446;10.840;2023-02-21T09:34:10;38.20;;;20.65;;
31308;SDS011;17936;52.446;10.840;2023-02-21T09:36:36;33.88;;;17.95;;
31308;SDS011;17936;52.446;10.840;2023-02-21T09:39:02;42.55;;;19.92;;
31308;SDS011;17936;52.446;10.840;2023-02-21T09:41:30;39.47;;;20.38;;
31308;SDS011;17936;52.446;10.840;2023-02-21T09:43:57;40.42;;;19.45;;
31308;SDS011;17936;52.446;10.840;2023-02-21T09:46:31;40.03;;;20.17;;
31308;SDS011;17936;52.446;10.840;2023-02-21T09:49:12;34.85;;;18.98;;
31308;SDS011;17936;52.446;10.840;2023-02-21T09:51:48;38.13;;;17.92;;
31308;SDS011;17936;52.446;10.840;2023-02-21T09:54:21;36.85;;;19.67;;
31308;SDS011;17936;52.446;10.840;2023-02-21T09:56:52;34.78;;;19.42;;
31308;SDS011;17936;52.446;10.840;2023-02-21T09:59:18;33.90;;;18.83;;
31308;SDS011;17936;52.446;10.840;2023-02-21T10:01:55;34.75;;;19.70;;
31308;SDS011;17936;52.446;10.840;2023-02-21T10:07:38;39.63;;;20.20;;
31308;SDS011;17936;52.446;10.840;2023-02-21T10:10:11;38.58;;;19.27;;
31308;SDS011;17936;52.446;10.840;2023-02-21T10:12:44;36.63;;;19.40;;
31308;SDS011;17936;52.446;10.840;2023-02-21T10:15:38;39.83;;;18.42;;
31308;SDS011;17936;52.446;10.840;2023-02-21T10:20:53;39.83;;;19.40;;
31308;SDS011;17936;52.446;10.840;2023-02-21T10:23:28;35.20;;;18.60;;
31308;SDS011;17936;52.446;10.840;2023-02-21T10:26:05;35.70;;;19.13;;
31308;SDS011;17936;52.446;10.840;2023-02-21T10:28:36;37.30;;;19.40;;
31308;SDS011;17936;52.446;10.840;2023-02-21T10:31:06;38.63;;;19.27;;
31308;SDS011;17936;52.446;10.840;2023-02-21T10:33:38;36.25;;;18.50;;
31308;SDS011;17936;52.446;10.840;2023-02-21T10:36:17;39.97;;;20.10;;
31308;SDS011;17936;52.446;10.840;2023-02-21T10:38:49;34.22;;;16.85;;
31308;SDS011;17936;52.446;10.840;2023-02-21T10:41:22;35.47;;;17.73;;
31308;SDS011;17936;52.446;10.840;2023-02-21T10:43:50;33.42;;;19.27;;
31308;SDS011;17936;52.446;10.840;2023-02-21T10:46:22;38.63;;;18.85;;
31308;SDS011;17936;52.446;10.840;2023-02-21T10:52:12;43.42;;;19.45;;
31308;SDS011;17936;52.446;10.840;2023-02-21T10:54:41;37.90;;;18.65;;
31308;SDS011;17936;52.446;10.840;2023-02-21T10:57:23;38.95;;;19.50;;
31308;SDS011;17936;52.446;10.840;2023-02-21T10:59:49;42.22;;;20.05;;
31308;SDS011;17936;52.446;10.840;2023-02-21T11:04:56;35.75;;;19.25;;
31308;SDS011;17936;52.446;10.840;2023-02-21T11:07:40;40.67;;;20.13;;
31308;SDS011;17936;52.446;10.840;2023-02-21T11:10:26;38.42;;;19.15;;
31308;SDS011;17936;52.446;10.840;2023-02-21T11:13:00;39.53;;;19.50;;
31308;SDS011;17936;52.446;10.840;2023-02-21T11:15:36;37.80;;;18.98;;
31308;SDS011;17936;52.446;10.840;2023-02-21T11:18:03;35.30;;;19.15;;
31308;SDS011;17936;52.446;10.840;2023-02-21T11:20:35;33.75;;;18.25;;
31308;SDS011;17936;52.446;10.840;2023-02-21T11:23:01;40.55;;;19.90;;
31308;SDS011;17936;52.446;10.840;2023-02-21T11:25:30;39.78;;;20.58;;
31308;SDS011;17936;52.446;10.840;2023-02-21T11:28:06;37.03;;;19.42;;
31308;SDS011;17936;52.446;10.840;2023-02-21T11:30:47;38.33;;;21.05;;
31308;SDS011;17936;52.446;10.840;2023-02-21T11:33:25;32.17;;;18.45;;
31308;SDS011;17936;52.446;10.840;2023-02-21T11:35:52;36.00;;;19.38;;
31308;SDS011;17936;52.446;10.840;2023-02-21T11:41:26;41.63;;;19.17;;
31308;SDS011;17936;52.446;10.840;2023-02-21T11:43:54;40.80;;;19.97;;
31308;SDS011;17936;52.446;10.840;2023-02-21T11:46:36;33.05;;;18.58;;
31308;SDS011;17936;52.446;10.840;2023-02-21T11:54:11;34.15;;;18.13;;
31308;SDS011;17936;52.446;10.840;2023-02-21T12:13:07;31.60;;;17.75;;
31308;SDS011;17936;52.446;10.840;2023-02-21T12:15:55;34.33;;;16.23;;
31308;SDS011;17936;52.446;10.840;2023-02-21T12:19:00;31.58;;;16.60;;
31308;SDS011;17936;52.446;10.840;2023-02-21T12:27:40;26.15;;;14.40;;
31308;SDS011;17936;52.446;10.840;2023-02-21T12:35:57;26.48;;;14.13;;
31308;SDS011;17936;52.446;10.840;2023-02-21T12:44:16;25.48;;;13.95;;
31308;SDS011;17936;52.446;10.840;2023-02-21T12:46:49;25.48;;;14.40;;
31308;SDS011;17936;52.446;10.840;2023-02-21T12:49:25;26.40;;;13.90;;
31308;SDS011;17936;52.446;10.840;2023-02-21T12:52:14;26.10;;;14.18;;
31308;SDS011;17936;52.446;10.840;2023-02-21T12:57:21;25.92;;;13.60;;
31308;SDS011;17936;52.446;10.840;2023-02-21T13:05:56;25.02;;;13.70;;
31308;SDS011;17936;52.446;10.840;2023-02-21T13:08:32;23.35;;;13.68;;
31308;SDS011;17936;52.446;10.840;2023-02-21T13:11:24;22.92;;;13.07;;
31308;SDS011;17936;52.446;10.840;2023-02-21T13:13:56;24.00;;;13.35;;
31308;SDS011;17936;52.446;10.840;2023-02-21T13:16:23;21.23;;;13.02;;
31308;SDS011;17936;52.446;10.840;2023-02-21T13:18:50;25.02;;;13.10;;
31308;SDS011;17936;52.446;10.840;2023-02-21T13:21:35;23.63;;;12.57;;
31308;SDS011;17936;52.446;10.840;2023-02-21T13:30:20;23.20;;;13.02;;
31308;SDS011;17936;52.446;10.840;2023-02-21T13:32:56;25.23;;;12.20;;
31308;SDS011;17936;52.446;10.840;2023-02-21T13:35:25;26.83;;;12.68;;
31308;SDS011;17936;52.446;10.840;2023-02-21T13:37:55;21.95;;;12.93;;
31308;SDS011;17936;52.446;10.840;2023-02-21T13:45:42;22.42;;;10.60;;
31308;SDS011;17936;52.446;10.840;2023-02-21T13:48:15;19.02;;;11.55;;
31308;SDS011;17936;52.446;10.840;2023-02-21T13:50:45;15.57;;;10.57;;
31308;SDS011;17936;52.446;10.840;2023-02-21T13:58:31;18.30;;;10.50;;
31308;SDS011;17936;52.446;10.840;2023-02-21T14:03:47;16.42;;;10.25;;
31308;SDS011;17936;52.446;10.840;2023-02-21T14:06:28;17.23;;;10.07;;
31308;SDS011;17936;52.446;10.840;2023-02-21T14:09:08;17.65;;;10.98;;
31308;SDS011;17936;52.446;10.840;2023-02-21T14:11:47;20.65;;;10.57;;
31308;SDS011;17936;52.446;10.840;2023-02-21T14:14:19;19.85;;;10.80;;
31308;SDS011;17936;52.446;10.840;2023-02-21T14:17:00;21.80;;;11.52;;
31308;SDS011;17936;52.446;10.840;2023-02-21T14:19:31;21.80;;;9.85;;
31308;SDS011;17936;52.446;10.840;2023-02-21T14:22:11;16.88;;;9.90;;
31308;SDS011;17936;52.446;10.840;2023-02-21T14:24:42;19.85;;;11.07;;
31308;SDS011;17936;52.446;10.840;2023-02-21T14:29:43;18.67;;;10.32;;
31308;SDS011;17936;52.446;10.840;2023-02-21T14:32:31;20.55;;;10.63;;
31308;SDS011;17936;52.446;10.840;2023-02-21T14:37:42;16.83;;;9.95;;
31308;SDS011;17936;52.446;10.840;2023-02-21T14:43:05;20.27;;;10.48;;
31308;SDS011;17936;52.446;10.840;2023-02-21T14:45:50;18.77;;;10.40;;
31308;SDS011;17936;52.446;10.840;2023-02-21T14:48:37;16.52;;;10.45;;
31308;SDS011;17936;52.446;10.840;2023-02-21T14:57:06;17.67;;;9.38;;
31308;SDS011;17936;52.446;10.840;2023-02-21T14:59:55;22.83;;;11.63;;
31308;SDS011;17936;52.446;10.840;2023-02-21T15:02:40;17.55;;;10.82;;
31308;SDS011;17936;52.446;10.840;2023-02-21T15:05:17;18.75;;;10.00;;
31308;SDS011;17936;52.446;10.840;2023-02-21T15:10:31;18.30;;;10.52;;
31308;SDS011;17936;52.446;10.840;2023-02-21T15:13:03;18.02;;;11.23;;
31308;SDS011;17936;52.446;10.840;2023-02-21T15:15:37;15.90;;;9.85;;
31308;SDS011;17936;52.446;10.840;2023-02-21T15:18:06;17.42;;;10.68;;
31308;SDS011;17936;52.446;10.840;2023-02-21T15:20:37;22.75;;;11.43;;
31308;SDS011;17936;52.446;10.840;2023-02-21T15:25:43;23.80;;;11.43;;
31308;SDS011;17936;52.446;10.840;2023-02-21T15:28:26;21.65;;;11.43;;
31308;SDS011;17936;52.446;10.840;2023-02-21T15:30:56;22.90;;;12.65;;
31308;SDS011;17936;52.446;10.840;2023-02-21T15:33:31;25.58;;;13.57;;
31308;SDS011;17936;52.446;10.840;2023-02-21T15:36:04;25.73;;;12.65;;
31308;SDS011;17936;52.446;10.840;2023-02-21T15:38:47;20.77;;;12.57;;
31308;SDS011;17936;52.446;10.840;2023-02-21T15:44:07;23.30;;;13.52;;
31308;SDS011;17936;52.446;10.840;2023-02-21T15:49:17;20.15;;;10.98;;
31308;SDS011;17936;52.446;10.840;2023-02-21T15:51:47;23.08;;;12.02;;
31308;SDS011;17936;52.446;10.840;2023-02-21T15:56:41;23.73;;;12.95;;
31308;SDS011;17936;52.446;10.840;2023-02-21T15:59:12;22.67;;;12.77;;
31308;SDS011;17936;52.446;10.840;2023-02-21T16:01:43;21.63;;;12.25;;
31308;SDS011;17936;52.446;10.840;2023-02-21T16:04:15;22.17;;;13.20;;
31308;SDS011;17936;52.446;10.840;2023-02-21T16:09:27;19.90;;;12.00;;
31308;SDS011;17936;52.446;10.840;2023-02-21T16:11:59;21.27;;;12.27;;
31308;SDS011;17936;52.446;10.840;2023-02-21T16:14:46;19.25;;;11.57;;
31308;SDS011;17936;52.446;10.840;2023-02-21T16:17:38;26.15;;;14.82;;
31308;SDS011;17936;52.446;10.840;2023-02-21T16:20:12;22.77;;;12.60;;
31308;SDS011;17936;52.446;10.840;2023-02-21T16:22:42;20.40;;;12.10;;
31308;SDS011;17936;52.446;10.840;2023-02-21T16:25:20;32.10;;;15.80;;
31308;SDS011;17936;52.446;10.840;2023-02-21T16:27:49;20.60;;;11.98;;
31308;SDS011;17936;52.446;10.840;2023-02-21T16:30:34;23.02;;;12.23;;
31308;SDS011;17936;52.446;10.840;2023-02-21T16:33:03;25.15;;;12.40;;
31308;SDS011;17936;52.446;10.840;2023-02-21T16:35:30;24.75;;;12.52;;
31308;SDS011;17936;52.446;10.840;2023-02-21T16:37:57;19.27;;;11.50;;
31308;SDS011;17936;52.446;10.840;2023-02-21T16:40:28;23.10;;;12.32;;
31308;SDS011;17936;52.446;10.840;2023-02-21T16:42:55;22.85;;;12.25;;
31308;SDS011;17936;52.446;10.840;2023-02-21T16:45:22;23.52;;;12.18;;
31308;SDS011;17936;52.446;10.840;2023-02-21T16:47:49;22.45;;;12.75;;
31308;SDS011;17936;52.446;10.840;2023-02-21T16:50:29;20.70;;;11.25;;
31308;SDS011;17936;52.446;10.840;2023-02-21T16:52:56;21.75;;;11.85;;